createdAt,value
2018-04-13T00:00:48.995Z,12.36
2018-04-13T00:01:48.977Z,12.41
2018-04-13T00:02:51.652Z,12.46
2018-04-13T00:03:48.927Z,12.46
2018-04-13T00:04:48.898Z,12.48
2018-04-13T00:05:48.868Z,12.48
2018-04-13T00:06:48.845Z,12.44
2018-04-13T00:07:48.851Z,12.40
2018-04-13T00:08:48.787Z,12.43
2018-04-13T00:09:48.761Z,12.48
2018-04-13T00:10:48.729Z,12.30
2018-04-13T00:11:48.730Z,12.43
2018-04-13T00:12:48.673Z,12.30
2018-04-13T00:13:48.638Z,12.41
2018-04-13T00:14:48.616Z,12.38
2018-04-13T00:15:48.583Z,12.29
2018-04-13T00:16:48.560Z,12.35
2018-04-13T00:17:50.170Z,12.32
2018-04-13T00:18:48.503Z,12.30
2018-04-13T00:19:48.483Z,12.25
2018-04-13T00:20:48.453Z,12.11
2018-04-13T00:21:48.429Z,12.13
2018-04-13T00:22:48.394Z,12.15
2018-04-13T00:23:48.364Z,12.17
2018-04-13T00:24:48.345Z,11.99
2018-04-13T00:25:48.321Z,12.05
2018-04-13T00:26:48.279Z,12.04
2018-04-13T00:27:48.255Z,12.15
2018-04-13T00:28:48.253Z,12.00
2018-04-13T00:29:48.205Z,12.04
2018-04-13T00:30:48.671Z,11.99
2018-04-13T00:31:48.143Z,12.08
2018-04-13T00:32:48.122Z,12.03
2018-04-13T00:33:48.087Z,12.00
2018-04-13T00:34:48.054Z,11.99
2018-04-13T00:35:48.042Z,11.84
2018-04-13T00:36:48.022Z,11.91
2018-04-13T00:37:47.981Z,11.84
2018-04-13T00:38:47.953Z,11.99
2018-04-13T00:39:47.936Z,11.88
2018-04-13T00:40:47.903Z,11.87
2018-04-13T00:41:47.915Z,11.91
2018-04-13T00:42:47.837Z,11.76
2018-04-13T00:43:47.833Z,11.77
2018-04-13T00:44:47.776Z,11.79
2018-04-13T00:45:47.752Z,11.73
2018-04-13T00:46:47.822Z,11.77
2018-04-13T00:47:47.691Z,11.74
2018-04-13T00:48:47.667Z,11.77
2018-04-13T00:49:47.672Z,11.76
2018-04-13T00:50:47.622Z,11.77
2018-04-13T00:51:47.598Z,11.77
2018-04-13T00:52:47.591Z,11.76
2018-04-13T00:53:47.530Z,11.80
2018-04-13T00:54:47.503Z,11.76
2018-04-13T00:55:47.503Z,11.87
2018-04-13T00:56:47.446Z,11.82
2018-04-13T00:57:47.415Z,11.84
2018-04-13T00:58:47.395Z,11.77
2018-04-13T00:59:47.371Z,11.69
2018-04-13T01:00:47.339Z,11.77
2018-04-13T01:01:47.314Z,11.71
2018-04-13T01:02:47.285Z,11.76
2018-04-13T01:03:47.254Z,11.76
2018-04-13T01:04:47.266Z,11.79
2018-04-13T01:05:48.187Z,11.77
2018-04-13T01:06:47.169Z,11.82
2018-04-13T01:07:47.144Z,11.76
2018-04-13T01:08:47.122Z,11.80
2018-04-13T01:09:47.077Z,11.74
2018-04-13T01:10:47.102Z,11.66
2018-04-13T01:11:47.037Z,11.76
2018-04-13T01:12:46.995Z,11.61
2018-04-13T01:13:46.991Z,11.61
2018-04-13T01:14:46.949Z,11.69
2018-04-13T01:15:46.917Z,11.62
2018-04-13T01:16:46.889Z,11.55
2018-04-13T01:17:46.857Z,11.59
2018-04-13T01:18:46.846Z,11.61
2018-04-13T01:19:46.807Z,11.64
2018-04-13T01:20:46.771Z,11.64
2018-04-13T01:21:46.797Z,11.59
2018-04-13T01:22:46.781Z,11.66
2018-04-13T01:23:46.698Z,11.64
2018-04-13T01:24:46.682Z,11.54
2018-04-13T01:25:46.638Z,11.58
2018-04-13T01:26:46.596Z,11.52
2018-04-13T01:27:46.575Z,11.51
2018-04-13T01:28:46.544Z,11.52
2018-04-13T01:29:46.515Z,11.49
2018-04-13T01:30:46.514Z,11.54
2018-04-13T01:31:46.479Z,11.56
2018-04-13T01:32:46.439Z,11.58
2018-04-13T01:33:46.405Z,11.54
2018-04-13T01:34:46.381Z,11.52
2018-04-13T01:35:46.349Z,11.45
2018-04-13T01:36:46.335Z,11.45
2018-04-13T01:37:46.300Z,11.38
2018-04-13T01:38:46.261Z,11.48
2018-04-13T01:39:46.243Z,11.36
2018-04-13T01:40:46.205Z,11.49
2018-04-13T01:41:46.189Z,11.41
2018-04-13T01:42:46.156Z,11.41
2018-04-13T01:43:46.118Z,11.37
2018-04-13T01:44:46.086Z,11.41
2018-04-13T01:45:46.077Z,11.37
2018-04-13T01:46:46.037Z,11.36
2018-04-13T01:47:46.016Z,11.41
2018-04-13T01:48:45.985Z,11.31
2018-04-13T01:49:45.950Z,11.28
2018-04-13T01:50:45.931Z,11.31
2018-04-13T01:51:45.896Z,11.22
2018-04-13T01:52:45.872Z,11.13
2018-04-13T01:53:45.895Z,11.31
2018-04-13T01:54:45.818Z,11.19
2018-04-13T01:55:45.792Z,11.23
2018-04-13T01:56:45.767Z,11.18
2018-04-13T01:57:45.762Z,11.20
2018-04-13T01:58:45.700Z,11.19
2018-04-13T01:59:45.689Z,11.09
2018-04-13T02:00:45.653Z,11.05
2018-04-13T02:01:45.621Z,11.01
2018-04-13T02:02:45.601Z,11.04
2018-04-13T02:03:45.564Z,11.08
2018-04-13T02:04:45.526Z,11.05
2018-04-13T02:05:45.506Z,10.98
2018-04-13T02:06:45.471Z,11.09
2018-04-13T02:07:45.454Z,10.95
2018-04-13T02:08:45.406Z,10.94
2018-04-13T02:09:45.386Z,11.08
2018-04-13T02:10:45.358Z,10.95
2018-04-13T02:11:45.361Z,10.94
2018-04-13T02:12:45.297Z,10.94
2018-04-13T02:13:45.277Z,10.95
2018-04-13T02:14:45.268Z,11.04
2018-04-13T02:15:45.214Z,10.98
2018-04-13T02:16:45.186Z,10.98
2018-04-13T02:17:45.160Z,10.93
2018-04-13T02:18:45.127Z,10.90
2018-04-13T02:19:45.099Z,10.86
2018-04-13T02:20:45.096Z,10.87
2018-04-13T02:21:45.037Z,10.94
2018-04-13T02:22:45.015Z,10.91
2018-04-13T02:23:44.980Z,10.90
2018-04-13T02:24:44.954Z,10.90
2018-04-13T02:25:44.939Z,10.90
2018-04-13T02:26:44.900Z,10.85
2018-04-13T02:27:44.873Z,10.86
2018-04-13T02:28:44.852Z,10.90
2018-04-13T02:29:44.824Z,10.86
2018-04-13T02:30:44.785Z,10.79
2018-04-13T02:31:44.756Z,10.73
2018-04-13T02:32:44.739Z,10.76
2018-04-13T02:33:44.700Z,10.75
2018-04-13T02:34:44.691Z,10.65
2018-04-13T02:35:44.649Z,10.73
2018-04-13T02:36:44.612Z,10.85
2018-04-13T02:37:44.579Z,10.83
2018-04-13T02:38:44.554Z,10.80
2018-04-13T02:39:44.528Z,10.75
2018-04-13T02:40:44.502Z,10.65
2018-04-13T02:41:44.473Z,10.64
2018-04-13T02:42:44.439Z,10.67
2018-04-13T02:43:44.418Z,10.65
2018-04-13T02:44:44.384Z,10.62
2018-04-13T02:45:44.363Z,10.70
2018-04-13T02:46:44.334Z,10.58
2018-04-13T02:47:44.305Z,10.61
2018-04-13T02:48:44.273Z,10.49
2018-04-13T02:49:44.264Z,10.49
2018-04-13T02:50:44.217Z,10.46
2018-04-13T02:51:44.178Z,10.52
2018-04-13T02:52:44.171Z,10.45
2018-04-13T02:53:44.130Z,10.45
2018-04-13T02:54:44.095Z,10.46
2018-04-13T02:55:44.100Z,10.42
2018-04-13T02:56:44.035Z,10.48
2018-04-13T02:57:44.005Z,10.39
2018-04-13T02:58:43.983Z,10.45
2018-04-13T02:59:43.967Z,10.43
2018-04-13T03:00:44.709Z,10.43
2018-04-13T03:01:44.690Z,10.43
2018-04-13T03:02:43.891Z,10.39
2018-04-13T03:03:43.837Z,10.41
2018-04-13T03:04:43.859Z,10.43
2018-04-13T03:05:43.811Z,10.39
2018-04-13T03:06:43.768Z,10.34
2018-04-13T03:07:43.721Z,10.42
2018-04-13T03:08:43.693Z,10.31
2018-04-13T03:09:43.658Z,10.34
2018-04-13T03:10:43.628Z,10.48
2018-04-13T03:11:43.612Z,10.38
2018-04-13T03:12:44.568Z,10.35
2018-04-13T03:13:43.550Z,10.31
2018-04-13T03:14:43.511Z,10.34
2018-04-13T03:15:44.194Z,10.34
2018-04-13T03:16:43.550Z,10.28
2018-04-13T03:17:43.431Z,10.30
2018-04-13T03:18:43.409Z,10.24
2018-04-13T03:19:43.443Z,10.20
2018-04-13T03:20:43.344Z,10.18
2018-04-13T03:21:43.323Z,10.20
2018-04-13T03:22:43.295Z,10.14
2018-04-13T03:23:43.261Z,10.16
2018-04-13T03:24:43.254Z,10.10
2018-04-13T03:25:43.204Z,10.12
2018-04-13T03:26:43.169Z,10.16
2018-04-13T03:27:43.199Z,10.12
2018-04-13T03:28:43.102Z,10.12
2018-04-13T03:29:43.087Z,10.05
2018-04-13T03:30:43.089Z,9.99
2018-04-13T03:31:43.022Z,9.96
2018-04-13T03:32:42.994Z,10.02
2018-04-13T03:33:42.981Z,9.93
2018-04-13T03:34:42.937Z,9.99
2018-04-13T03:35:42.916Z,9.96
2018-04-13T03:36:42.889Z,10.01
2018-04-13T03:37:42.845Z,9.88
2018-04-13T03:38:42.814Z,9.98
2018-04-13T03:39:42.799Z,9.91
2018-04-13T03:40:42.758Z,9.88
2018-04-13T03:41:42.730Z,10.01
2018-04-13T03:42:42.703Z,9.91
2018-04-13T03:43:42.670Z,9.90
2018-04-13T03:44:42.643Z,9.87
2018-04-13T03:45:42.651Z,9.93
2018-04-13T03:46:42.580Z,9.85
2018-04-13T03:47:42.577Z,9.91
2018-04-13T03:48:42.560Z,9.88
2018-04-13T03:49:42.503Z,9.93
2018-04-13T03:50:42.481Z,9.96
2018-04-13T03:51:42.465Z,9.94
2018-04-13T03:52:42.420Z,9.88
2018-04-13T03:53:42.379Z,9.93
2018-04-13T03:54:43.201Z,9.88
2018-04-13T03:55:42.329Z,9.83
2018-04-13T03:56:42.293Z,9.93
2018-04-13T03:57:42.273Z,9.90
2018-04-13T03:58:42.231Z,9.93
2018-04-13T03:59:42.213Z,9.98
2018-04-13T04:00:42.175Z,9.96
2018-04-13T04:01:42.150Z,9.85
2018-04-13T04:02:42.117Z,9.91
2018-04-13T04:03:42.091Z,9.94
2018-04-13T04:04:42.072Z,9.90
2018-04-13T04:05:42.029Z,9.96
2018-04-13T04:06:42.002Z,9.88
2018-04-13T04:07:41.981Z,9.88
2018-04-13T04:08:41.969Z,9.91
2018-04-13T04:09:41.915Z,9.90
2018-04-13T04:10:41.883Z,9.94
2018-04-13T04:11:41.860Z,9.91
2018-04-13T04:12:41.832Z,9.99
2018-04-13T04:13:41.811Z,9.87
2018-04-13T04:14:41.771Z,9.91
2018-04-13T04:15:41.740Z,9.81
2018-04-13T04:16:41.714Z,9.94
2018-04-13T04:17:41.685Z,9.90
2018-04-13T04:18:41.648Z,9.90
2018-04-13T04:19:41.620Z,9.78
2018-04-13T04:20:41.590Z,9.87
2018-04-13T04:21:41.560Z,9.69
2018-04-13T04:22:41.529Z,9.77
2018-04-13T04:23:41.509Z,9.70
2018-04-13T04:24:41.480Z,9.81
2018-04-13T04:25:41.439Z,9.70
2018-04-13T04:26:41.423Z,9.83
2018-04-13T04:27:41.439Z,9.72
2018-04-13T04:28:41.356Z,9.69
2018-04-13T04:29:41.342Z,9.69
2018-04-13T04:30:41.317Z,9.70
2018-04-13T04:31:41.277Z,9.73
2018-04-13T04:32:41.236Z,9.77
2018-04-13T04:33:41.218Z,9.78
2018-04-13T04:34:41.185Z,9.77
2018-04-13T04:35:41.162Z,9.73
2018-04-13T04:36:42.116Z,9.81
2018-04-13T04:37:41.093Z,9.85
2018-04-13T04:38:41.070Z,9.80
2018-04-13T04:39:41.035Z,9.81
2018-04-13T04:40:41.004Z,9.80
2018-04-13T04:41:40.974Z,9.83
2018-04-13T04:42:40.941Z,9.81
2018-04-13T04:43:40.928Z,9.69
2018-04-13T04:44:40.898Z,9.69
2018-04-13T04:45:40.880Z,9.69
2018-04-13T04:46:40.843Z,9.69
2018-04-13T04:47:40.838Z,9.69
2018-04-13T04:48:40.786Z,9.81
2018-04-13T04:49:40.747Z,9.70
2018-04-13T04:50:40.710Z,9.72
2018-04-13T04:51:40.687Z,9.70
2018-04-13T04:52:40.661Z,9.72
2018-04-13T04:53:40.619Z,9.69
2018-04-13T04:54:40.595Z,9.83
2018-04-13T04:55:40.581Z,9.73
2018-04-13T04:56:40.538Z,9.67
2018-04-13T04:57:40.510Z,9.66
2018-04-13T04:58:40.590Z,9.65
2018-04-13T04:59:40.594Z,9.66
2018-04-13T05:00:40.482Z,9.65
2018-04-13T05:01:40.496Z,9.69
2018-04-13T05:02:40.423Z,9.77
2018-04-13T05:03:40.410Z,9.72
2018-04-13T05:04:40.319Z,9.73
2018-04-13T05:05:40.364Z,9.75
2018-04-13T05:06:40.308Z,9.91
2018-04-13T05:07:40.212Z,9.88
2018-04-13T05:08:40.197Z,9.80
2018-04-13T05:09:40.154Z,9.85
2018-04-13T05:10:40.131Z,9.93
2018-04-13T05:11:40.111Z,9.88
2018-04-13T05:12:40.102Z,9.93
2018-04-13T05:13:40.043Z,9.96
2018-04-13T05:14:40.057Z,9.93
2018-04-13T05:15:40.016Z,9.98
2018-04-13T05:16:40.010Z,9.88
2018-04-13T05:17:39.955Z,10.02
2018-04-13T05:18:39.913Z,9.90
2018-04-13T05:19:39.976Z,9.90
2018-04-13T05:20:39.850Z,9.91
2018-04-13T05:21:39.826Z,9.96
2018-04-13T05:22:39.851Z,10.12
2018-04-13T05:23:39.845Z,10.08
2018-04-13T05:24:39.862Z,10.06
2018-04-13T05:25:39.757Z,10.10
2018-04-13T05:26:39.753Z,10.10
2018-04-13T05:27:39.701Z,10.06
2018-04-13T05:28:40.283Z,10.08
2018-04-13T05:29:39.659Z,10.14
2018-04-13T05:30:39.614Z,10.14
2018-04-13T05:31:39.584Z,10.16
2018-04-13T05:32:40.563Z,10.16
2018-04-13T05:33:39.514Z,10.18
2018-04-13T05:34:39.492Z,10.34
2018-04-13T05:35:39.465Z,10.30
2018-04-13T05:36:39.434Z,10.30
2018-04-13T05:37:42.256Z,10.35
2018-04-13T05:38:39.341Z,10.26
2018-04-13T05:39:39.351Z,10.23
2018-04-13T05:40:39.362Z,10.18
2018-04-13T05:41:39.276Z,10.17
2018-04-13T05:42:39.321Z,10.16
2018-04-13T05:43:39.286Z,10.20
2018-04-13T05:44:39.191Z,10.23
2018-04-13T05:45:40.181Z,10.26
2018-04-13T05:46:39.145Z,10.27
2018-04-13T05:47:39.242Z,10.36
2018-04-13T05:48:39.121Z,10.34
2018-04-13T05:49:38.999Z,10.34
2018-04-13T05:50:39.054Z,10.41
2018-04-13T05:51:39.016Z,10.42
2018-04-13T05:52:39.002Z,10.58
2018-04-13T05:53:38.972Z,10.68
2018-04-13T05:54:38.968Z,10.65
2018-04-13T05:55:38.937Z,10.68
2018-04-13T05:56:38.951Z,10.68
2018-04-13T05:57:38.772Z,10.85
2018-04-13T05:58:38.730Z,10.79
2018-04-13T05:59:38.707Z,10.82
2018-04-13T06:00:38.679Z,10.83
2018-04-13T06:01:38.654Z,10.95
2018-04-13T06:02:38.618Z,10.86
2018-04-13T06:03:38.587Z,10.87
2018-04-13T06:04:38.558Z,10.90
2018-04-13T06:05:38.531Z,10.90
2018-04-13T06:06:38.547Z,10.98
2018-04-13T06:07:38.471Z,10.87
2018-04-13T06:08:38.454Z,10.91
2018-04-13T06:09:38.425Z,10.95
2018-04-13T06:10:38.398Z,11.03
2018-04-13T06:11:38.361Z,11.04
2018-04-13T06:12:38.336Z,11.11
2018-04-13T06:13:38.308Z,11.13
2018-04-13T06:14:38.447Z,11.19
2018-04-13T06:15:38.239Z,11.19
2018-04-13T06:16:38.210Z,11.15
2018-04-13T06:17:38.210Z,11.22
2018-04-13T06:18:38.152Z,11.34
2018-04-13T06:19:38.147Z,11.28
2018-04-13T06:20:38.117Z,11.36
2018-04-13T06:21:38.072Z,11.38
2018-04-13T06:22:38.044Z,11.43
2018-04-13T06:23:38.021Z,11.54
2018-04-13T06:24:37.989Z,11.55
2018-04-13T06:25:37.952Z,11.62
2018-04-13T06:26:37.937Z,11.64
2018-04-13T06:27:37.950Z,11.73
2018-04-13T06:28:37.900Z,11.74
2018-04-13T06:29:37.875Z,11.74
2018-04-13T06:30:37.830Z,11.76
2018-04-13T06:31:37.788Z,11.79
2018-04-13T06:32:37.764Z,11.77
2018-04-13T06:33:37.740Z,11.74
2018-04-13T06:34:37.698Z,11.87
2018-04-13T06:35:37.695Z,11.88
2018-04-13T06:36:37.651Z,11.96
2018-04-13T06:37:37.621Z,12.00
2018-04-13T06:38:37.596Z,12.05
2018-04-13T06:39:37.561Z,12.05
2018-04-13T06:40:37.533Z,12.11
2018-04-13T06:41:54.466Z,12.17
2018-04-13T06:43:42.108Z,12.23
2018-04-13T06:44:42.205Z,12.29
2018-04-13T06:46:49.638Z,12.32
2018-04-13T06:47:48.396Z,12.33
2018-04-13T06:48:47.993Z,12.40
2018-04-13T06:49:47.715Z,12.46
2018-04-13T06:50:47.625Z,12.46
2018-04-13T06:51:47.547Z,12.43
2018-04-13T06:52:47.529Z,12.51
2018-04-13T06:53:47.500Z,12.59
2018-04-13T06:54:47.511Z,12.65
2018-04-13T06:55:47.437Z,12.71
2018-04-13T06:56:48.386Z,12.79
2018-04-13T06:57:47.380Z,12.87
2018-04-13T06:58:47.357Z,12.81
2018-04-13T06:59:47.326Z,12.93
2018-04-13T07:00:47.307Z,13.04
2018-04-13T07:01:47.268Z,12.93
2018-04-13T07:02:47.250Z,12.99
2018-04-13T07:03:47.224Z,12.98
2018-04-13T07:04:47.199Z,12.98
2018-04-13T07:05:47.162Z,13.05
2018-04-13T07:06:47.135Z,13.09
2018-04-13T07:07:47.117Z,12.91
2018-04-13T07:08:47.073Z,13.05
2018-04-13T07:09:47.074Z,13.08
2018-04-13T07:10:47.027Z,13.13
2018-04-13T07:11:46.991Z,13.27
2018-04-13T07:12:46.971Z,13.30
2018-04-13T07:13:46.939Z,13.45
2018-04-13T07:14:46.931Z,13.47
2018-04-13T07:15:46.896Z,13.49
2018-04-13T07:16:46.871Z,13.60
2018-04-13T07:17:46.838Z,13.54
2018-04-13T07:18:46.812Z,13.54
2018-04-13T07:19:46.781Z,13.61
2018-04-13T07:20:46.752Z,13.60
2018-04-13T07:21:46.727Z,13.63
2018-04-13T07:22:46.698Z,13.82
2018-04-13T07:23:46.675Z,13.85
2018-04-13T07:24:46.646Z,13.86
2018-04-13T07:25:46.613Z,13.96
2018-04-13T07:26:46.596Z,13.93
2018-04-13T07:27:46.566Z,14.00
2018-04-13T07:28:46.542Z,14.13
2018-04-13T07:29:46.547Z,14.11
2018-04-13T07:30:46.483Z,14.11
2018-04-13T07:31:46.451Z,14.12
2018-04-13T07:32:46.458Z,14.21
2018-04-13T07:33:46.410Z,14.26
2018-04-13T07:34:46.405Z,14.22
2018-04-13T07:35:46.388Z,14.13
2018-04-13T07:36:46.332Z,14.12
2018-04-13T07:37:46.303Z,14.26
2018-04-13T07:38:46.325Z,14.23
2018-04-13T07:39:46.257Z,14.27
2018-04-13T07:40:46.225Z,14.33
2018-04-13T07:41:46.203Z,14.46
2018-04-13T07:42:46.765Z,14.28
2018-04-13T07:43:46.149Z,14.09
2018-04-13T07:44:46.198Z,14.04
2018-04-13T07:45:46.089Z,14.03
2018-04-13T07:46:46.068Z,14.03
2018-04-13T07:47:46.038Z,14.12
2018-04-13T07:48:46.002Z,13.98
2018-04-13T07:49:45.986Z,14.09
2018-04-13T07:50:45.961Z,14.19
2018-04-13T07:51:45.933Z,14.22
2018-04-13T07:52:45.906Z,14.22
2018-04-13T07:53:45.881Z,14.22
2018-04-13T07:54:45.844Z,14.30
2018-04-13T07:55:45.828Z,14.40
2018-04-13T07:56:45.802Z,14.46
2018-04-13T07:57:45.767Z,14.52
2018-04-13T07:58:45.750Z,14.61
2018-04-13T07:59:45.718Z,14.78
2018-04-13T08:00:46.319Z,14.67
2018-04-13T08:01:45.679Z,14.77
2018-04-13T08:02:45.729Z,14.71
2018-04-13T08:03:45.632Z,14.74
2018-04-13T08:04:45.595Z,14.79
2018-04-13T08:05:45.553Z,14.78
2018-04-13T08:06:45.536Z,14.82
2018-04-13T08:07:45.509Z,14.86
2018-04-13T08:08:45.476Z,14.92
2018-04-13T08:09:45.450Z,14.92
2018-04-13T08:10:45.438Z,15.03
2018-04-13T08:11:45.421Z,14.93
2018-04-13T08:12:45.433Z,15.03
2018-04-13T08:13:45.371Z,15.05
2018-04-13T08:14:45.388Z,14.86
2018-04-13T08:15:45.296Z,14.97
2018-04-13T08:16:45.283Z,15.03
2018-04-13T08:17:45.255Z,14.96
2018-04-13T08:18:45.297Z,15.01
2018-04-13T08:19:45.199Z,15.04
2018-04-13T08:20:45.163Z,14.99
2018-04-13T08:21:45.166Z,14.90
2018-04-13T08:22:45.130Z,14.92
2018-04-13T08:23:45.102Z,14.99
2018-04-13T08:24:45.092Z,14.97
2018-04-13T08:25:45.034Z,15.01
2018-04-13T08:26:45.007Z,15.12
2018-04-13T08:27:44.987Z,15.03
2018-04-13T08:28:44.960Z,15.05
2018-04-13T08:29:44.995Z,15.17
2018-04-13T08:30:44.928Z,15.14
2018-04-13T08:31:44.915Z,15.22
2018-04-13T08:32:44.856Z,15.22
2018-04-13T08:33:44.862Z,15.20
2018-04-13T08:34:44.800Z,15.23
2018-04-13T08:35:44.816Z,15.38
2018-04-13T08:36:44.785Z,15.29
2018-04-13T08:37:44.731Z,15.36
2018-04-13T08:38:44.940Z,15.44
2018-04-13T08:39:44.671Z,15.44
2018-04-13T08:40:44.658Z,15.44
2018-04-13T08:41:44.645Z,15.29
2018-04-13T08:42:44.613Z,15.36
2018-04-13T08:43:44.577Z,15.36
2018-04-13T08:44:44.542Z,15.44
2018-04-13T08:45:44.585Z,15.25
2018-04-13T08:46:44.489Z,15.26
2018-04-13T08:47:44.461Z,15.30
2018-04-13T08:48:44.516Z,15.33
2018-04-13T08:49:44.431Z,15.25
2018-04-13T08:50:44.387Z,15.25
2018-04-13T08:51:44.369Z,15.22
2018-04-13T08:52:44.338Z,15.25
2018-04-13T08:53:44.313Z,15.38
2018-04-13T08:54:44.305Z,15.11
2018-04-13T08:55:44.400Z,15.27
2018-04-13T08:56:44.360Z,15.27
2018-04-13T08:57:44.385Z,15.40
2018-04-13T08:58:44.194Z,15.32
2018-04-13T08:59:44.191Z,15.43
2018-04-13T09:00:44.340Z,15.52
2018-04-13T09:01:44.106Z,15.63
2018-04-13T09:02:44.197Z,15.78
2018-04-13T09:03:44.124Z,15.80
2018-04-13T09:04:44.206Z,15.81
2018-04-13T09:05:44.075Z,15.85
2018-04-13T09:06:44.090Z,15.78
2018-04-13T09:07:44.062Z,15.85
2018-04-13T09:08:44.016Z,15.83
2018-04-13T09:09:43.903Z,15.84
2018-04-13T09:10:43.956Z,15.99
2018-04-13T09:11:43.944Z,16.08
2018-04-13T09:12:43.825Z,16.22
2018-04-13T09:13:43.860Z,16.29
2018-04-13T09:14:43.998Z,16.51
2018-04-13T09:15:43.755Z,16.55
2018-04-13T09:16:43.759Z,16.51
2018-04-13T09:17:43.761Z,16.43
2018-04-13T09:18:43.678Z,16.49
2018-04-13T09:19:43.665Z,16.58
2018-04-13T09:20:43.780Z,16.44
2018-04-13T09:21:43.598Z,16.67
2018-04-13T09:22:43.662Z,16.74
2018-04-13T09:23:43.604Z,16.82
2018-04-13T09:24:43.533Z,16.94
2018-04-13T09:25:43.572Z,16.91
2018-04-13T09:26:43.610Z,16.69
2018-04-13T09:27:43.542Z,16.72
2018-04-13T09:28:43.429Z,16.74
2018-04-13T09:29:43.433Z,16.82
2018-04-13T09:30:43.379Z,16.87
2018-04-13T09:31:43.427Z,16.70
2018-04-13T09:32:43.406Z,16.59
2018-04-13T09:33:43.295Z,16.72
2018-04-13T09:34:45.439Z,16.82
2018-04-13T09:35:43.261Z,16.80
2018-04-13T09:36:43.276Z,16.84
2018-04-13T09:37:43.298Z,16.90
2018-04-13T09:38:43.184Z,16.77
2018-04-13T09:39:43.280Z,16.91
2018-04-13T09:40:43.215Z,16.99
2018-04-13T09:41:43.110Z,16.72
2018-04-13T09:42:43.197Z,16.70
2018-04-13T09:43:43.128Z,16.59
2018-04-13T09:44:43.044Z,16.72
2018-04-13T09:45:43.051Z,16.72
2018-04-13T09:46:43.021Z,16.72
2018-04-13T09:47:42.971Z,16.95
2018-04-13T09:48:42.982Z,16.99
2018-04-13T09:49:43.066Z,16.94
2018-04-13T09:50:42.922Z,17.09
2018-04-13T09:51:42.890Z,16.99
2018-04-13T09:52:42.839Z,17.09
2018-04-13T09:53:42.904Z,16.98
2018-04-13T09:54:42.966Z,16.99
2018-04-13T09:55:42.759Z,16.91
2018-04-13T09:56:42.758Z,16.76
2018-04-13T09:57:42.848Z,16.61
2018-04-13T09:58:42.690Z,16.59
2018-04-13T09:59:42.741Z,16.64
2018-04-13T10:00:42.640Z,16.70
2018-04-13T10:01:42.640Z,16.65
2018-04-13T10:02:42.585Z,16.47
2018-04-13T10:03:42.643Z,16.51
2018-04-13T10:04:42.712Z,16.52
2018-04-13T10:05:42.602Z,16.61
2018-04-13T10:06:42.614Z,16.44
2018-04-13T10:07:42.552Z,16.55
2018-04-13T10:08:42.508Z,16.57
2018-04-13T10:09:42.587Z,16.51
2018-04-13T10:10:42.556Z,16.55
2018-04-13T10:11:42.462Z,16.64
2018-04-13T10:12:42.555Z,16.62
2018-04-13T10:13:42.393Z,16.57
2018-04-13T10:14:42.350Z,16.52
2018-04-13T10:15:42.354Z,16.47
2018-04-13T10:16:42.322Z,16.47
2018-04-13T10:17:42.286Z,16.62
2018-04-13T10:18:42.231Z,16.59
2018-04-13T10:19:42.171Z,16.52
2018-04-13T10:20:42.214Z,16.52
2018-04-13T10:21:42.255Z,16.51
2018-04-13T10:22:42.101Z,16.52
2018-04-13T10:23:42.131Z,16.51
2018-04-13T10:24:42.112Z,16.51
2018-04-13T10:25:42.043Z,16.49
2018-04-13T10:26:42.014Z,16.49
2018-04-13T10:27:42.040Z,16.51
2018-04-13T10:28:42.085Z,16.47
2018-04-13T10:29:42.005Z,16.54
2018-04-13T10:30:41.908Z,16.51
2018-04-13T10:31:41.924Z,16.49
2018-04-13T10:32:41.975Z,16.44
2018-04-13T10:33:41.822Z,16.47
2018-04-13T10:34:41.789Z,16.49
2018-04-13T10:35:41.832Z,16.49
2018-04-13T10:36:41.763Z,16.51
2018-04-13T10:37:41.828Z,16.51
2018-04-13T10:38:41.766Z,16.49
2018-04-13T10:39:41.665Z,16.52
2018-04-13T10:40:42.333Z,16.52
2018-04-13T10:41:41.615Z,16.59
2018-04-13T10:42:41.757Z,16.65
2018-04-13T10:43:41.644Z,16.58
2018-04-13T10:44:41.544Z,16.49
2018-04-13T10:45:41.560Z,16.52
2018-04-13T10:46:41.576Z,16.52
2018-04-13T10:47:41.581Z,16.52
2018-04-13T10:48:41.511Z,16.59
2018-04-13T10:49:41.425Z,16.28
2018-04-13T10:50:41.471Z,16.42
2018-04-13T10:51:41.418Z,16.52
2018-04-13T10:52:41.336Z,16.44
2018-04-13T10:53:41.378Z,16.54
2018-04-13T10:54:41.353Z,16.47
2018-04-13T10:55:41.269Z,16.49
2018-04-13T10:56:41.255Z,16.33
2018-04-13T10:57:41.286Z,16.51
2018-04-13T10:58:41.244Z,16.44
2018-04-13T10:59:41.185Z,16.58
2018-04-13T11:00:41.187Z,16.61
2018-04-13T11:01:41.124Z,16.62
2018-04-13T11:02:41.201Z,16.55
2018-04-13T11:03:41.100Z,16.69
2018-04-13T11:04:41.184Z,16.73
2018-04-13T11:05:41.085Z,16.72
2018-04-13T11:06:40.996Z,16.74
2018-04-13T11:07:41.044Z,16.79
2018-04-13T11:08:41.023Z,16.74
2018-04-13T11:09:40.918Z,16.83
2018-04-13T11:10:41.054Z,16.84
2018-04-13T11:11:40.946Z,16.73
2018-04-13T11:12:41.009Z,16.74
2018-04-13T11:13:40.995Z,16.74
2018-04-13T11:14:40.789Z,16.87
2018-04-13T11:15:40.898Z,16.76
2018-04-13T11:16:40.823Z,16.67
2018-04-13T11:17:40.712Z,16.73
2018-04-13T11:18:40.757Z,16.87
2018-04-13T11:19:40.763Z,16.88
2018-04-13T11:20:40.688Z,16.58
2018-04-13T11:21:40.631Z,16.57
2018-04-13T11:22:40.742Z,16.43
2018-04-13T11:23:40.608Z,16.52
2018-04-13T11:24:40.537Z,16.58
2018-04-13T11:25:40.663Z,16.70
2018-04-13T11:26:40.619Z,16.76
2018-04-13T11:27:40.461Z,16.91
2018-04-13T11:28:40.457Z,16.92
2018-04-13T11:29:40.520Z,17.20
2018-04-13T11:30:40.391Z,17.27
2018-04-13T11:31:40.461Z,17.30
2018-04-13T11:32:40.403Z,17.47
2018-04-13T11:33:40.329Z,17.35
2018-04-13T11:34:40.342Z,17.34
2018-04-13T11:35:40.385Z,17.27
2018-04-13T11:36:40.267Z,17.24
2018-04-13T11:37:40.254Z,17.50
2018-04-13T11:38:40.276Z,17.56
2018-04-13T11:39:40.165Z,17.66
2018-04-13T11:40:40.212Z,17.54
2018-04-13T11:41:40.228Z,17.32
2018-04-13T11:42:40.092Z,17.72
2018-04-13T11:43:40.171Z,17.79
2018-04-13T11:44:40.121Z,17.83
2018-04-13T11:45:40.029Z,17.84
2018-04-13T11:46:40.117Z,17.78
2018-04-13T11:47:40.032Z,17.57
2018-04-13T11:48:39.998Z,17.69
2018-04-13T11:49:39.986Z,17.76
2018-04-13T11:50:39.902Z,17.81
2018-04-13T11:51:39.929Z,18.13
2018-04-13T11:52:39.983Z,18.27
2018-04-13T11:53:39.839Z,18.46
2018-04-13T11:54:39.867Z,18.41
2018-04-13T11:55:39.792Z,18.20
2018-04-13T11:56:39.760Z,18.12
2018-04-13T11:57:39.805Z,18.09
2018-04-13T11:58:39.822Z,18.09
2018-04-13T11:59:39.747Z,18.05
2018-04-13T12:00:39.694Z,17.97
2018-04-13T12:01:39.689Z,17.91
2018-04-13T12:02:39.652Z,17.65
2018-04-13T12:03:39.627Z,17.35
2018-04-13T12:04:39.690Z,17.38
2018-04-13T12:05:39.607Z,17.56
2018-04-13T12:06:39.560Z,17.62
2018-04-13T12:07:39.669Z,17.65
2018-04-13T12:08:39.511Z,17.90
2018-04-13T12:09:39.546Z,17.90
2018-04-13T12:10:39.559Z,17.90
2018-04-13T12:11:39.441Z,18.06
2018-04-13T12:12:39.451Z,18.02
2018-04-13T12:13:39.416Z,18.15
2018-04-13T12:14:39.342Z,18.15
2018-04-13T12:15:39.416Z,18.15
2018-04-13T12:16:39.287Z,18.23
2018-04-13T12:17:39.306Z,18.18
2018-04-13T12:18:39.338Z,18.01
2018-04-13T12:19:39.229Z,17.78
2018-04-13T12:20:39.376Z,17.79
2018-04-13T12:21:39.179Z,17.65
2018-04-13T12:22:39.388Z,17.50
2018-04-13T12:23:39.134Z,17.31
2018-04-13T12:24:39.155Z,16.98
2018-04-13T12:25:39.132Z,16.99
2018-04-13T12:26:39.190Z,17.02
2018-04-13T12:27:39.074Z,16.92
2018-04-13T12:28:39.093Z,16.99
2018-04-13T12:29:38.988Z,16.95
2018-04-13T12:30:39.089Z,16.98
2018-04-13T12:31:39.001Z,16.90
2018-04-13T12:32:38.920Z,16.95
2018-04-13T12:33:39.052Z,16.95
2018-04-13T12:34:39.001Z,17.02
2018-04-13T12:35:38.938Z,17.01
2018-04-13T12:36:39.073Z,16.95
2018-04-13T12:37:39.033Z,16.87
2018-04-13T12:38:38.936Z,16.91
2018-04-13T12:39:38.837Z,16.88
2018-04-13T12:40:39.442Z,16.87
2018-04-13T12:41:40.401Z,16.94
2018-04-13T12:42:38.676Z,17.10
2018-04-13T12:43:39.794Z,17.24
2018-04-13T12:44:40.041Z,17.31
2018-04-13T12:45:38.592Z,17.32
2018-04-13T12:46:38.698Z,17.41
2018-04-13T12:47:38.612Z,17.37
2018-04-13T12:48:38.597Z,17.45
2018-04-13T12:49:38.625Z,17.34
2018-04-13T12:50:38.482Z,17.54
2018-04-13T12:51:38.594Z,17.62
2018-04-13T12:52:38.587Z,17.71
2018-04-13T12:53:40.028Z,17.90
2018-04-13T12:54:39.936Z,17.90
2018-04-13T12:55:38.429Z,18.11
2018-04-13T12:56:38.555Z,18.17
2018-04-13T12:57:38.529Z,18.12
2018-04-13T12:58:38.332Z,18.18